sensor_id;sensor_type;location;lat;lon;timestamp;P1;durP1;ratioP1;P2;durP2;ratioP2
76968;SDS011;65905;50.140;8.684;2022-12-16T00:03:50;8.35;;;2.95;;
76968;SDS011;65905;50.140;8.684;2022-12-16T00:10:33;9.65;;;3.70;;
76968;SDS011;65905;50.140;8.684;2022-12-16T00:17:32;11.20;;;3.57;;
76968;SDS011;65905;50.140;8.684;2022-12-16T00:24:13;12.75;;;2.97;;
76968;SDS011;65905;50.140;8.684;2022-12-16T00:30:54;6.30;;;2.97;;
76968;SDS011;65905;50.140;8.684;2022-12-16T00:37:36;5.50;;;2.78;;
76968;SDS011;65905;50.140;8.684;2022-12-16T00:44:17;7.43;;;2.55;;
76968;SDS011;65905;50.140;8.684;2022-12-16T00:50:58;6.85;;;2.92;;
76968;SDS011;65905;50.140;8.684;2022-12-16T00:57:38;5.95;;;2.65;;
76968;SDS011;65905;50.140;8.684;2022-12-16T01:04:19;6.78;;;2.97;;
76968;SDS011;65905;50.140;8.684;2022-12-16T01:11:00;4.75;;;2.90;;
76968;SDS011;65905;50.140;8.684;2022-12-16T01:17:41;7.15;;;2.92;;
76968;SDS011;65905;50.140;8.684;2022-12-16T01:24:22;5.40;;;2.60;;
76968;SDS011;65905;50.140;8.684;2022-12-16T01:31:03;6.03;;;3.63;;
76968;SDS011;65905;50.140;8.684;2022-12-16T01:37:44;6.63;;;2.65;;
76968;SDS011;65905;50.140;8.684;2022-12-16T01:44:25;5.65;;;2.70;;
76968;SDS011;65905;50.140;8.684;2022-12-16T01:51:26;5.22;;;2.17;;
76968;SDS011;65905;50.140;8.684;2022-12-16T01:58:11;4.65;;;2.40;;
76968;SDS011;65905;50.140;8.684;2022-12-16T02:04:58;4.13;;;2.50;;
76968;SDS011;65905;50.140;8.684;2022-12-16T02:12:05;6.53;;;3.10;;
76968;SDS011;65905;50.140;8.684;2022-12-16T02:19:15;5.70;;;2.88;;
76968;SDS011;65905;50.140;8.684;2022-12-16T02:40:40;5.18;;;2.50;;
76968;SDS011;65905;50.140;8.684;2022-12-16T02:47:22;6.32;;;3.08;;
76968;SDS011;65905;50.140;8.684;2022-12-16T02:54:03;6.47;;;2.50;;
76968;SDS011;65905;50.140;8.684;2022-12-16T03:00:50;4.30;;;2.63;;
76968;SDS011;65905;50.140;8.684;2022-12-16T03:07:39;2.95;;;1.83;;
76968;SDS011;65905;50.140;8.684;2022-12-16T03:14:24;6.75;;;2.35;;
76968;SDS011;65905;50.140;8.684;2022-12-16T03:21:09;6.35;;;2.33;;
76968;SDS011;65905;50.140;8.684;2022-12-16T03:27:58;4.78;;;2.35;;
76968;SDS011;65905;50.140;8.684;2022-12-16T03:34:57;3.28;;;1.90;;
76968;SDS011;65905;50.140;8.684;2022-12-16T03:41:44;5.70;;;1.67;;
76968;SDS011;65905;50.140;8.684;2022-12-16T03:48:29;3.30;;;1.65;;
76968;SDS011;65905;50.140;8.684;2022-12-16T03:55:10;5.20;;;2.38;;
76968;SDS011;65905;50.140;8.684;2022-12-16T04:01:54;4.18;;;1.65;;
76968;SDS011;65905;50.140;8.684;2022-12-16T04:08:35;4.18;;;2.00;;
76968;SDS011;65905;50.140;8.684;2022-12-16T04:15:16;2.88;;;1.95;;
76968;SDS011;65905;50.140;8.684;2022-12-16T04:21:59;3.58;;;1.95;;
76968;SDS011;65905;50.140;8.684;2022-12-16T04:28:58;5.03;;;1.97;;
76968;SDS011;65905;50.140;8.684;2022-12-16T04:35:39;3.60;;;1.75;;
76968;SDS011;65905;50.140;8.684;2022-12-16T04:42:39;3.28;;;1.88;;
76968;SDS011;65905;50.140;8.684;2022-12-16T04:49:39;3.70;;;1.88;;
76968;SDS011;65905;50.140;8.684;2022-12-16T04:56:41;3.63;;;1.42;;
76968;SDS011;65905;50.140;8.684;2022-12-16T05:03:40;2.97;;;1.58;;
76968;SDS011;65905;50.140;8.684;2022-12-16T05:10:40;3.57;;;1.63;;
76968;SDS011;65905;50.140;8.684;2022-12-16T05:17:42;4.85;;;2.45;;
76968;SDS011;65905;50.140;8.684;2022-12-16T05:24:42;4.07;;;1.65;;
76968;SDS011;65905;50.140;8.684;2022-12-16T05:31:42;3.67;;;1.52;;
76968;SDS011;65905;50.140;8.684;2022-12-16T05:38:41;2.88;;;1.40;;
76968;SDS011;65905;50.140;8.684;2022-12-16T05:45:41;3.88;;;2.00;;
76968;SDS011;65905;50.140;8.684;2022-12-16T05:52:46;4.88;;;2.10;;
76968;SDS011;65905;50.140;8.684;2022-12-16T05:59:48;5.00;;;1.45;;
76968;SDS011;65905;50.140;8.684;2022-12-16T06:06:48;3.22;;;1.85;;
76968;SDS011;65905;50.140;8.684;2022-12-16T06:13:48;3.95;;;1.88;;
76968;SDS011;65905;50.140;8.684;2022-12-16T06:20:48;3.05;;;1.83;;
76968;SDS011;65905;50.140;8.684;2022-12-16T06:27:49;4.72;;;1.67;;
76968;SDS011;65905;50.140;8.684;2022-12-16T06:34:51;3.83;;;1.75;;
76968;SDS011;65905;50.140;8.684;2022-12-16T06:41:51;5.22;;;1.85;;
76968;SDS011;65905;50.140;8.684;2022-12-16T06:48:50;4.07;;;1.90;;
76968;SDS011;65905;50.140;8.684;2022-12-16T06:55:50;2.47;;;1.75;;
76968;SDS011;65905;50.140;8.684;2022-12-16T07:02:49;2.78;;;1.63;;
76968;SDS011;65905;50.140;8.684;2022-12-16T07:09:49;4.30;;;1.85;;
76968;SDS011;65905;50.140;8.684;2022-12-16T07:16:49;3.70;;;1.63;;
76968;SDS011;65905;50.140;8.684;2022-12-16T07:23:48;4.00;;;2.35;;
76968;SDS011;65905;50.140;8.684;2022-12-16T07:30:47;3.60;;;1.50;;
76968;SDS011;65905;50.140;8.684;2022-12-16T07:37:47;4.82;;;1.77;;
76968;SDS011;65905;50.140;8.684;2022-12-16T07:44:49;3.38;;;1.75;;
76968;SDS011;65905;50.140;8.684;2022-12-16T07:51:49;5.82;;;1.85;;
76968;SDS011;65905;50.140;8.684;2022-12-16T07:58:52;3.80;;;2.53;;
76968;SDS011;65905;50.140;8.684;2022-12-16T08:05:51;5.00;;;2.60;;
76968;SDS011;65905;50.140;8.684;2022-12-16T08:13:02;4.35;;;2.40;;
76968;SDS011;65905;50.140;8.684;2022-12-16T08:20:05;3.63;;;1.60;;
76968;SDS011;65905;50.140;8.684;2022-12-16T08:34:04;3.93;;;1.57;;
76968;SDS011;65905;50.140;8.684;2022-12-16T08:41:04;5.55;;;2.42;;
76968;SDS011;65905;50.140;8.684;2022-12-16T08:48:07;5.30;;;2.83;;
76968;SDS011;65905;50.140;8.684;2022-12-16T08:55:06;3.53;;;2.20;;
76968;SDS011;65905;50.140;8.684;2022-12-16T09:02:06;5.35;;;2.65;;
76968;SDS011;65905;50.140;8.684;2022-12-16T09:09:09;6.32;;;3.22;;
76968;SDS011;65905;50.140;8.684;2022-12-16T09:16:11;4.68;;;2.92;;
76968;SDS011;65905;50.140;8.684;2022-12-16T09:23:27;5.15;;;2.67;;
76968;SDS011;65905;50.140;8.684;2022-12-16T09:30:28;5.00;;;2.87;;
76968;SDS011;65905;50.140;8.684;2022-12-16T09:37:27;6.65;;;2.95;;
76968;SDS011;65905;50.140;8.684;2022-12-16T09:44:40;4.67;;;2.43;;
76968;SDS011;65905;50.140;8.684;2022-12-16T09:51:58;6.35;;;3.08;;
76968;SDS011;65905;50.140;8.684;2022-12-16T09:59:01;5.65;;;2.65;;
76968;SDS011;65905;50.140;8.684;2022-12-16T10:13:46;6.75;;;3.30;;
76968;SDS011;65905;50.140;8.684;2022-12-16T10:20:51;5.13;;;2.83;;
76968;SDS011;65905;50.140;8.684;2022-12-16T10:27:54;4.50;;;2.30;;
76968;SDS011;65905;50.140;8.684;2022-12-16T10:35:13;4.32;;;2.40;;
76968;SDS011;65905;50.140;8.684;2022-12-16T10:42:22;4.35;;;2.63;;
76968;SDS011;65905;50.140;8.684;2022-12-16T10:49:24;4.05;;;2.60;;
76968;SDS011;65905;50.140;8.684;2022-12-16T11:04:36;5.93;;;3.13;;
76968;SDS011;65905;50.140;8.684;2022-12-16T11:11:39;6.75;;;3.22;;
76968;SDS011;65905;50.140;8.684;2022-12-16T11:18:47;5.82;;;3.20;;
76968;SDS011;65905;50.140;8.684;2022-12-16T11:25:54;7.07;;;3.45;;
76968;SDS011;65905;50.140;8.684;2022-12-16T11:33:10;7.43;;;3.03;;
76968;SDS011;65905;50.140;8.684;2022-12-16T11:40:18;4.50;;;2.97;;
76968;SDS011;65905;50.140;8.684;2022-12-16T11:47:22;8.20;;;3.65;;
76968;SDS011;65905;50.140;8.684;2022-12-16T11:54:34;6.55;;;3.17;;
76968;SDS011;65905;50.140;8.684;2022-12-16T12:09:18;7.07;;;3.13;;
76968;SDS011;65905;50.140;8.684;2022-12-16T12:31:34;5.07;;;2.92;;
76968;SDS011;65905;50.140;8.684;2022-12-16T12:45:47;5.40;;;3.38;;
76968;SDS011;65905;50.140;8.684;2022-12-16T13:07:22;5.22;;;2.95;;
76968;SDS011;65905;50.140;8.684;2022-12-16T13:21:48;6.88;;;3.65;;
76968;SDS011;65905;50.140;8.684;2022-12-16T13:29:01;7.63;;;3.45;;
76968;SDS011;65905;50.140;8.684;2022-12-16T13:36:13;6.35;;;3.58;;
76968;SDS011;65905;50.140;8.684;2022-12-16T13:43:16;5.13;;;3.38;;
76968;SDS011;65905;50.140;8.684;2022-12-16T13:57:46;5.40;;;3.45;;
76968;SDS011;65905;50.140;8.684;2022-12-16T14:04:47;8.65;;;4.15;;
76968;SDS011;65905;50.140;8.684;2022-12-16T14:11:55;6.03;;;3.60;;
76968;SDS011;65905;50.140;8.684;2022-12-16T14:26:14;6.05;;;3.65;;
76968;SDS011;65905;50.140;8.684;2022-12-16T14:33:20;5.38;;;3.83;;
76968;SDS011;65905;50.140;8.684;2022-12-16T14:40:29;6.32;;;3.38;;
76968;SDS011;65905;50.140;8.684;2022-12-16T14:47:33;7.00;;;3.65;;
76968;SDS011;65905;50.140;8.684;2022-12-16T14:54:37;6.22;;;3.85;;
76968;SDS011;65905;50.140;8.684;2022-12-16T15:01:41;7.15;;;4.40;;
76968;SDS011;65905;50.140;8.684;2022-12-16T15:15:47;6.55;;;3.97;;
76968;SDS011;65905;50.140;8.684;2022-12-16T15:22:47;9.57;;;4.40;;
76968;SDS011;65905;50.140;8.684;2022-12-16T15:29:51;9.32;;;4.70;;
76968;SDS011;65905;50.140;8.684;2022-12-16T15:36:59;7.25;;;4.03;;
76968;SDS011;65905;50.140;8.684;2022-12-16T15:44:20;6.72;;;3.72;;
76968;SDS011;65905;50.140;8.684;2022-12-16T15:58:34;8.25;;;4.20;;
76968;SDS011;65905;50.140;8.684;2022-12-16T16:05:34;8.95;;;4.53;;
76968;SDS011;65905;50.140;8.684;2022-12-16T16:12:34;7.85;;;3.90;;
76968;SDS011;65905;50.140;8.684;2022-12-16T16:19:33;7.20;;;3.75;;
76968;SDS011;65905;50.140;8.684;2022-12-16T16:34:00;7.78;;;3.92;;
76968;SDS011;65905;50.140;8.684;2022-12-16T16:40:59;7.55;;;4.55;;
76968;SDS011;65905;50.140;8.684;2022-12-16T16:48:09;7.30;;;4.20;;
76968;SDS011;65905;50.140;8.684;2022-12-16T17:02:16;10.48;;;5.55;;
76968;SDS011;65905;50.140;8.684;2022-12-16T17:09:17;7.03;;;4.28;;
76968;SDS011;65905;50.140;8.684;2022-12-16T17:16:17;8.60;;;4.45;;
76968;SDS011;65905;50.140;8.684;2022-12-16T17:23:16;8.95;;;3.78;;
76968;SDS011;65905;50.140;8.684;2022-12-16T17:30:20;9.30;;;4.65;;
76968;SDS011;65905;50.140;8.684;2022-12-16T17:37:21;7.47;;;4.10;;
76968;SDS011;65905;50.140;8.684;2022-12-16T17:44:20;9.68;;;4.45;;
76968;SDS011;65905;50.140;8.684;2022-12-16T17:51:19;10.33;;;6.53;;
76968;SDS011;65905;50.140;8.684;2022-12-16T17:58:19;8.60;;;4.63;;
76968;SDS011;65905;50.140;8.684;2022-12-16T18:05:19;10.68;;;5.80;;
76968;SDS011;65905;50.140;8.684;2022-12-16T18:12:18;9.07;;;4.47;;
76968;SDS011;65905;50.140;8.684;2022-12-16T18:26:18;5.60;;;3.30;;
76968;SDS011;65905;50.140;8.684;2022-12-16T18:33:17;10.15;;;4.75;;
76968;SDS011;65905;50.140;8.684;2022-12-16T18:40:20;5.70;;;3.97;;
76968;SDS011;65905;50.140;8.684;2022-12-16T18:47:19;7.03;;;3.97;;
76968;SDS011;65905;50.140;8.684;2022-12-16T18:54:22;7.07;;;4.18;;
76968;SDS011;65905;50.140;8.684;2022-12-16T19:01:21;8.57;;;4.80;;
76968;SDS011;65905;50.140;8.684;2022-12-16T19:08:21;7.68;;;4.00;;
76968;SDS011;65905;50.140;8.684;2022-12-16T19:15:21;8.07;;;4.55;;
76968;SDS011;65905;50.140;8.684;2022-12-16T19:22:20;7.53;;;4.47;;
76968;SDS011;65905;50.140;8.684;2022-12-16T19:29:20;8.68;;;4.75;;
76968;SDS011;65905;50.140;8.684;2022-12-16T19:36:19;7.97;;;4.27;;
76968;SDS011;65905;50.140;8.684;2022-12-16T19:43:19;10.07;;;4.05;;
76968;SDS011;65905;50.140;8.684;2022-12-16T19:50:19;8.05;;;3.88;;
76968;SDS011;65905;50.140;8.684;2022-12-16T19:57:18;8.95;;;4.22;;
76968;SDS011;65905;50.140;8.684;2022-12-16T20:04:18;8.88;;;3.15;;
76968;SDS011;65905;50.140;8.684;2022-12-16T20:11:18;7.45;;;3.38;;
76968;SDS011;65905;50.140;8.684;2022-12-16T20:18:17;7.97;;;3.65;;
76968;SDS011;65905;50.140;8.684;2022-12-16T20:32:16;7.50;;;3.80;;
76968;SDS011;65905;50.140;8.684;2022-12-16T20:39:19;6.68;;;3.63;;
76968;SDS011;65905;50.140;8.684;2022-12-16T20:46:25;9.65;;;3.72;;
76968;SDS011;65905;50.140;8.684;2022-12-16T20:53:26;6.75;;;2.97;;
76968;SDS011;65905;50.140;8.684;2022-12-16T21:07:26;8.47;;;3.90;;
76968;SDS011;65905;50.140;8.684;2022-12-16T21:14:26;6.00;;;3.35;;
76968;SDS011;65905;50.140;8.684;2022-12-16T21:21:25;6.22;;;3.40;;
76968;SDS011;65905;50.140;8.684;2022-12-16T21:28:25;6.95;;;3.35;;
76968;SDS011;65905;50.140;8.684;2022-12-16T21:35:32;6.93;;;3.22;;
76968;SDS011;65905;50.140;8.684;2022-12-16T21:42:32;6.45;;;3.53;;
76968;SDS011;65905;50.140;8.684;2022-12-16T21:49:32;7.90;;;4.45;;
76968;SDS011;65905;50.140;8.684;2022-12-16T21:56:32;7.23;;;3.43;;
76968;SDS011;65905;50.140;8.684;2022-12-16T22:03:32;5.38;;;3.17;;
76968;SDS011;65905;50.140;8.684;2022-12-16T22:10:33;9.20;;;4.45;;
76968;SDS011;65905;50.140;8.684;2022-12-16T22:17:33;5.53;;;3.47;;
76968;SDS011;65905;50.140;8.684;2022-12-16T22:24:32;7.03;;;3.88;;
76968;SDS011;65905;50.140;8.684;2022-12-16T22:31:32;8.00;;;4.07;;
76968;SDS011;65905;50.140;8.684;2022-12-16T22:38:32;7.38;;;3.75;;
76968;SDS011;65905;50.140;8.684;2022-12-16T22:45:35;8.13;;;3.78;;
76968;SDS011;65905;50.140;8.684;2022-12-16T22:52:34;6.45;;;3.17;;
76968;SDS011;65905;50.140;8.684;2022-12-16T22:59:34;9.13;;;4.25;;
76968;SDS011;65905;50.140;8.684;2022-12-16T23:06:33;7.05;;;3.75;;
76968;SDS011;65905;50.140;8.684;2022-12-16T23:13:33;5.57;;;3.17;;
76968;SDS011;65905;50.140;8.684;2022-12-16T23:20:32;6.65;;;4.10;;
76968;SDS011;65905;50.140;8.684;2022-12-16T23:27:32;5.97;;;3.33;;
76968;SDS011;65905;50.140;8.684;2022-12-16T23:34:34;6.65;;;3.58;;
76968;SDS011;65905;50.140;8.684;2022-12-16T23:41:34;7.65;;;3.38;;
76968;SDS011;65905;50.140;8.684;2022-12-16T23:48:33;8.27;;;3.75;;
76968;SDS011;65905;50.140;8.684;2022-12-16T23:55:33;5.95;;;3.00;;
